Time;durP1;ratioP1;P1;durP2;ratioP2;P2;SDS_P1;SDS_P2;PMS_P1;PMS_P2;Temp;Humidity;BMP_temperature;BMP_pressure;BME280_temperature;BME280_humidity;BME280_pressure;Samples;Min_cycle;Max_cycle;Signal;HPM_P1;HPM_P2
2022/09/04 00:00:53;;;;;;;;;;;;;;;;;;5027109;28;1347;-70
2022/09/04 00:03:21;;;;;;;;;;;;;;;;;;5029134;28;1335;-71
2022/09/04 00:05:50;;;;;;;;;;;;;;;;;;5026170;28;1962;-71
2022/09/04 00:08:29;;;;;;;;;;;;;;;;;;5027017;28;1413;-71
2022/09/04 00:10:55;;;;;;;;;;;;;;;;;;5024161;28;1256;-71
2022/09/04 00:13:22;;;;;;;;;;;;;;;;;;5028297;28;1401;-71
2022/09/04 00:16:05;;;;;;;;;;;;;;;;;;5025305;28;1335;-72
2022/09/04 00:18:43;;;;;;;;;;;;;;;;;;5031000;28;1298;-72
2022/09/04 00:21:26;;;;;;;;;;;;;;;;;;5029965;28;1314;-69
2022/09/04 00:24:03;;;;;;;;;;;;;;;;;;5032032;28;1801;-69
2022/09/04 00:26:42;;;;;;;;;;;;;;;;;;5023576;28;1965;-70
2022/09/04 00:29:13;;;;;;;;;;;;;;;;;;5031261;28;1236;-70
2022/09/04 00:31:42;;;;;;;;;;;;;;;;;;5027594;28;1259;-70
2022/09/04 00:34:26;;;;;;;;;;;;;;;;;;5028836;28;1367;-67
2022/09/04 00:36:54;;;;;;;;;;;;;;;;;;5037088;28;1234;-69
2022/09/04 00:39:23;;;;;;;;;;;;;;;;;;5030429;28;1362;-68
2022/09/04 00:42:04;;;;;;;;;;;;;;;;;;5030693;28;1310;-69
2022/09/04 00:44:38;;;;;;;;;;;;;;;;;;5024567;28;1304;-69
2022/09/04 00:47:15;;;;;;;;;;;;;;;;;;5023039;28;1890;-70
2022/09/04 00:49:49;;;;;;;;;;;;;;;;;;5026875;28;1314;-69
2022/09/04 00:52:27;;;;;;;;;;;;;;;;;;5023065;28;1589;-69
2022/09/04 00:55:05;;;;;;;;;;;;;;;;;;5026400;28;1318;-68
2022/09/04 00:57:45;;;;;;;;;;;;;;;;;;5030623;28;1298;-69
2022/09/04 01:00:16;;;;;;;;;;;;;;;;;;5032152;28;1240;-69
2022/09/04 01:02:41;;;;;;;;;;;;;;;;;;5030066;28;1476;-69
2022/09/04 01:05:24;;;;;;;;;;;;;;;;;;5026304;28;1902;-69
2022/09/04 01:07:59;;;;;;;;;;;;;;;;;;5030128;28;1417;-69
2022/09/04 01:10:33;;;;;;;;;;;;;;;;;;5030379;28;1358;-69
2022/09/04 01:13:01;;;;;;;;;;;;;;;;;;5030033;28;1218;-69
2022/09/04 01:15:44;;;;;;;;;;;;;;;;;;5030233;28;1369;-69
2022/09/04 01:18:13;;;;;;;;;;;;;;;;;;5025040;28;1649;-70
2022/09/04 01:20:57;;;;;;;;;;;;;;;;;;5030431;28;1408;-69
2022/09/04 01:23:41;;;;;;;;;;;;;;;;;;5027202;28;1934;-72
2022/09/04 01:26:11;;;;;;;;;;;;;;;;;;5030727;28;2009;-72
2022/09/04 01:28:36;;;;;;;;;;;;;;;;;;5022258;28;1701;-71
2022/09/04 01:31:19;;;;;;;;;;;;;;;;;;5023604;28;1294;-70
2022/09/04 01:33:53;;;;;;;;;;;;;;;;;;5028285;28;1385;-71
2022/09/04 01:36:29;;;;;;;;;;;;;;;;;;5027712;28;1316;-71
2022/09/04 01:38:55;;;;;;;;;;;;;;;;;;5027688;28;1326;-71
2022/09/04 01:41:32;;;;;;;;;;;;;;;;;;5027428;28;1257;-71
2022/09/04 01:43:57;;;;;;;;;;;;;;;;;;5029313;28;1258;-71
2022/09/04 01:46:23;;;;;;;;;;;;;;;;;;5023239;28;1953;-71
2022/09/04 01:49:06;;;;;;;;;;;;;;;;;;5024968;28;1302;-71
2022/09/04 01:51:36;;;;;;;;;;;;;;;;;;5021613;28;1308;-71
2022/09/04 01:54:13;;;;;;;;;;;;;;;;;;5027926;28;1308;-71
2022/09/04 01:56:43;;;;;;;;;;;;;;;;;;5032130;28;1232;-73
2022/09/04 01:59:25;;;;;;;;;;;;;;;;;;5026501;28;1267;-73
2022/09/04 02:02:00;;;;;;;;;;;;;;;;;;5021217;28;1328;-73
2022/09/04 02:04:41;;;;;;;;;;;;;;;;;;5029527;28;1314;-73
2022/09/04 02:07:19;;;;;;;;;;;;;;;;;;5019674;28;1890;-73
2022/09/04 02:10:05;;;;;;;;;;;;;;;;;;5021424;28;1252;-73
2022/09/04 02:12:30;;;;;;;;;;;;;;;;;;4985039;28;1581;-67
2022/09/04 02:15:05;;;;;;;;;;;;;;;;;;5023391;28;1341;-68
2022/09/04 02:17:31;;;;;;;;;;;;;;;;;;5019397;28;1452;-68
2022/09/04 02:20:09;;;;;;;;;;;;;;;;;;5024059;28;1437;-70
2022/09/04 02:22:52;;;;;;;;;;;;;;;;;;5029430;28;2075;-68
2022/09/04 02:25:28;;;;;;;;;;;;;;;;;;5027755;28;1894;-69
2022/09/04 02:28:17;;;;;;;;;;;;;;;;;;5028402;28;1267;-70
2022/09/04 02:30:45;;;;;;;;;;;;;;;;;;5025810;28;1400;-67
2022/09/04 02:33:10;;;;;;;;;;;;;;;;;;5031342;28;1163;-70
2022/09/04 02:35:41;;;;;;;;;;;;;;;;;;5029871;28;1375;-70
2022/09/04 02:38:15;;;;;;;;;;;;;;;;;;5030281;28;1287;-69
2022/09/04 02:40:43;;;;;;;;;;;;;;;;;;5029258;28;1183;-71
2022/09/04 02:43:28;;;;;;;;;;;;;;;;;;5030590;28;1210;-70
2022/09/04 02:46:28;;;;;;;;;;;;;;;;;;5021915;28;1905;-71
2022/09/04 02:49:06;;;;;;;;;;;;;;;;;;4954315;28;1430;-70
2022/09/04 02:51:40;;;;;;;;;;;;;;;;;;5010810;28;1311;-71
2022/09/04 02:54:24;;;;;;;;;;;;;;;;;;5028839;28;1341;-74
2022/09/04 02:57:08;;;;;;;;;;;;;;;;;;5030096;28;1508;-70
2022/09/04 02:59:46;;;;;;;;;;;;;;;;;;5028653;28;1208;-70
2022/09/04 03:02:20;;;;;;;;;;;;;;;;;;5021322;28;2506;-70
2022/09/04 03:04:50;;;;;;;;;;;;;;;;;;5021145;28;2682;-69
2022/09/04 03:07:35;;;;;;;;;;;;;;;;;;5024369;28;1384;-70
2022/09/04 03:10:03;;;;;;;;;;;;;;;;;;5028528;28;1798;-70
2022/09/04 03:12:41;;;;;;;;;;;;;;;;;;5031830;28;1318;-69
2022/09/04 03:15:16;;;;;;;;;;;;;;;;;;5032874;28;1263;-70
2022/09/04 03:17:47;;;;;;;;;;;;;;;;;;5020537;28;1270;-68
2022/09/04 03:20:29;;;;;;;;;;;;;;;;;;5028345;28;1254;-69
2022/09/04 03:23:21;;;;;;;;;;;;;;;;;;5031292;28;1731;-69
2022/09/04 03:26:04;;;;;;;;;;;;;;;;;;4997167;28;1898;-71
2022/09/04 03:28:52;;;;;;;;;;;;;;;;;;5029350;28;1215;-69
2022/09/04 03:31:36;;;;;;;;;;;;;;;;;;5027907;28;1454;-70
2022/09/04 03:34:14;;;;;;;;;;;;;;;;;;5026307;28;1294;-72
2022/09/04 03:36:45;;;;;;;;;;;;;;;;;;5029860;28;1302;-74
2022/09/04 03:39:38;;;;;;;;;;;;;;;;;;5024463;28;1537;-71
2022/09/04 03:42:09;;;;;;;;;;;;;;;;;;5032906;28;1282;-72
2022/09/04 03:44:45;;;;;;;;;;;;;;;;;;5033275;28;1440;-72
2022/09/04 03:47:12;;;;;;;;;;;;;;;;;;5035712;28;1906;-71
2022/09/04 03:49:46;;;;;;;;;;;;;;;;;;5021121;28;1250;-71
2022/09/04 03:52:20;;;;;;;;;;;;;;;;;;5034522;28;1397;-71
2022/09/04 03:55:04;;;;;;;;;;;;;;;;;;5033611;28;1451;-71
2022/09/04 03:57:41;;;;;;;;;;;;;;;;;;5027419;28;1368;-71
2022/09/04 04:00:17;;;;;;;;;;;;;;;;;;5029953;28;1354;-71
2022/09/04 04:03:01;;;;;;;;;;;;;;;;;;5027812;28;1112;-72
2022/09/04 04:05:40;;;;;;;;;;;;;;;;;;5039263;22;3595;-73
2022/09/04 04:08:15;;;;;;;;;;;;;;;;;;5038424;28;1369;-73
2022/09/04 04:10:59;;;;;;;;;;;;;;;;;;5033724;28;1345;-72
2022/09/04 04:13:35;;;;;;;;;;;;;;;;;;5028504;28;1365;-73
2022/09/04 04:16:19;;;;;;;;;;;;;;;;;;5020525;28;1283;-73
2022/09/04 04:19:02;;;;;;;;;;;;;;;;;;5015596;28;1247;-73
2022/09/04 04:21:30;;;;;;;;;;;;;;;;;;5011719;28;1457;-73
2022/09/04 04:24:01;;;;;;;;;;;;;;;;;;5012053;28;1247;-73
2022/09/04 04:26:48;;;;;;;;;;;;;;;;;;5011501;28;1890;-73
2022/09/04 04:29:25;;;;;;;;;;;;;;;;;;5011764;28;1223;-73
2022/09/04 04:32:20;;;;;;;;;;;;;;;;;;5008426;28;1502;-73
2022/09/04 04:35:03;;;;;;;;;;;;;;;;;;5008897;28;1235;-73
2022/09/04 04:37:29;;;;;;;;;;;;;;;;;;5012816;28;1523;-73
2022/09/04 04:39:54;;;;;;;;;;;;;;;;;;5009405;28;1033;-73
2022/09/04 04:42:31;;;;;;;;;;;;;;;;;;5013592;28;1089;-73
2022/09/04 04:47:49;;;;;;;;;;;;;;;;;;5011447;28;1146;-73
2022/09/04 04:50:23;;;;;;;;;;;;;;;;;;5013511;28;1393;-73
2022/09/04 04:52:48;;;;;;;;;;;;;;;;;;5013329;28;1396;-74
2022/09/04 04:55:22;;;;;;;;;;;;;;;;;;5013193;28;1357;-74
2022/09/04 04:57:53;;;;;;;;;;;;;;;;;;5014309;28;1290;-73
2022/09/04 05:00:38;;;;;;;;;;;;;;;;;;5013627;28;1433;-73
2022/09/04 05:03:04;;;;;;;;;;;;;;;;;;5012176;28;2294;-73
2022/09/04 05:05:38;;;;;;;;;;;;;;;;;;5010505;28;1902;-73
2022/09/04 05:08:03;;;;;;;;;;;;;;;;;;5010710;28;1478;-73
2022/09/04 05:10:40;;;;;;;;;;;;;;;;;;5012952;28;1374;-73
2022/09/04 05:13:25;;;;;;;;;;;;;;;;;;5018126;28;1469;-73
2022/09/04 05:15:59;;;;;;;;;;;;;;;;;;5009792;28;1374;-73
2022/09/04 05:18:29;;;;;;;;;;;;;;;;;;5017109;28;1360;-73
2022/09/04 05:20:58;;;;;;;;;;;;;;;;;;5012452;28;1414;-73
2022/09/04 05:23:31;;;;;;;;;;;;;;;;;;5012670;28;1381;-75
2022/09/04 05:25:59;;;;;;;;;;;;;;;;;;5013119;28;1898;-75
2022/09/04 05:28:32;;;;;;;;;;;;;;;;;;5017115;28;1228;-75
2022/09/04 05:31:16;;;;;;;;;;;;;;;;;;5013021;28;1354;-75
2022/09/04 05:34:03;;;;;;;;;;;;;;;;;;5013737;28;1269;-75
2022/09/04 05:36:36;;;;;;;;;;;;;;;;;;5010355;28;1343;-75
2022/09/04 05:39:08;;;;;;;;;;;;;;;;;;5011042;28;1362;-75
2022/09/04 05:41:48;;;;;;;;;;;;;;;;;;5007406;28;1416;-76
2022/09/04 05:44:34;;;;;;;;;;;;;;;;;;5013225;28;1117;-77
2022/09/04 05:47:02;;;;;;;;;;;;;;;;;;5014917;28;1894;-77
2022/09/04 05:49:30;;;;;;;;;;;;;;;;;;5015535;28;1235;-78
2022/09/04 05:52:07;;;;;;;;;;;;;;;;;;5015264;28;1417;-77
2022/09/04 05:54:47;;;;;;;;;;;;;;;;;;5011195;28;1373;-76
2022/09/04 05:57:39;;;;;;;;;;;;;;;;;;5014380;28;1168;-75
2022/09/04 06:00:04;;;;;;;;;;;;;;;;;;4997835;28;1323;-74
2022/09/04 06:02:44;;;;;;;;;;;;;;;;;;5014167;28;1247;-75
2022/09/04 06:05:35;;;;;;;;;;;;;;;;;;5012713;28;1906;-75
2022/09/04 06:08:19;;;;;;;;;;;;;;;;;;5013344;28;1370;-75
2022/09/04 06:11:02;;;;;;;;;;;;;;;;;;5009871;28;1350;-75
2022/09/04 06:13:46;;;;;;;;;;;;;;;;;;5011351;28;1362;-74
2022/09/04 06:16:20;;;;;;;;;;;;;;;;;;5012661;28;1370;-75
2022/09/04 06:18:50;;;;;;;;;;;;;;;;;;5007334;28;1336;-75
2022/09/04 06:21:44;;;;;;;;;;;;;;;;;;5009868;28;1323;-75
2022/09/04 06:24:23;;;;;;;;;;;;;;;;;;4992351;28;1388;-75
2022/09/04 06:27:07;;;;;;;;;;;;;;;;;;5013921;28;1910;-76
2022/09/04 06:29:35;;;;;;;;;;;;;;;;;;5009693;28;1196;-75
2022/09/04 06:32:06;;;;;;;;;;;;;;;;;;5008343;28;1374;-75
2022/09/04 06:34:50;;;;;;;;;;;;;;;;;;5014558;28;1311;-75
2022/09/04 06:37:24;;;;;;;;;;;;;;;;;;5012915;28;1408;-75
2022/09/04 06:39:58;;;;;;;;;;;;;;;;;;5008484;28;1419;-74
2022/09/04 06:42:33;;;;;;;;;;;;;;;;;;5008011;28;1374;-75
2022/09/04 06:45:10;;;;;;;;;;;;;;;;;;5011364;28;1279;-74
2022/09/04 06:47:55;;;;;;;;;;;;;;;;;;5011506;28;1378;-73
2022/09/04 06:50:23;;;;;;;;;;;;;;;;;;5014989;28;1204;-75
2022/09/04 06:52:58;;;;;;;;;;;;;;;;;;5010945;28;1335;-75
2022/09/04 06:55:29;;;;;;;;;;;;;;;;;;5006371;28;1306;-75
2022/09/04 06:58:00;;;;;;;;;;;;;;;;;;5012510;28;1421;-75
2022/09/04 07:00:28;;;;;;;;;;;;;;;;;;5014220;28;1385;-75
2022/09/04 07:03:08;;;;;;;;;;;;;;;;;;5011943;28;1176;-75
2022/09/04 07:05:48;;;;;;;;;;;;;;;;;;5008774;28;1962;-75
2022/09/04 07:08:32;;;;;;;;;;;;;;;;;;5010055;28;1386;-75
2022/09/04 07:11:09;;;;;;;;;;;;;;;;;;5010092;28;1084;-75
2022/09/04 07:13:34;;;;;;;;;;;;;;;;;;5011764;28;1403;-75
2022/09/04 07:16:08;;;;;;;;;;;;;;;;;;5015922;28;1377;-75
2022/09/04 07:18:53;;;;;;;;;;;;;;;;;;5013307;28;1237;-75
2022/09/04 07:21:22;;;;;;;;;;;;;;;;;;5013933;28;1417;-75
2022/09/04 07:23:50;;;;;;;;;;;;;;;;;;5007497;28;1367;-77
2022/09/04 07:26:16;;;;;;;;;;;;;;;;;;5013692;28;1898;-77
2022/09/04 07:29:00;;;;;;;;;;;;;;;;;;5010140;28;1416;-76
2022/09/04 07:31:40;;;;;;;;;;;;;;;;;;5009931;28;1370;-74
2022/09/04 07:34:15;;;;;;;;;;;;;;;;;;5007828;28;1225;-76
2022/09/04 07:36:56;;;;;;;;;;;;;;;;;;5010044;28;1397;-77
2022/09/04 07:39:24;;;;;;;;;;;;;;;;;;5014150;28;1044;-78
2022/09/04 07:42:08;;;;;;;;;;;;;;;;;;5010577;28;1445;-76
2022/09/04 07:44:53;;;;;;;;;;;;;;;;;;5009244;28;1770;-75
2022/09/04 07:47:18;;;;;;;;;;;;;;;;;;5012085;28;1898;-75
2022/09/04 07:49:55;;;;;;;;;;;;;;;;;;5012655;28;1353;-75
2022/09/04 07:52:41;;;;;;;;;;;;;;;;;;5009086;28;1533;-74
2022/09/04 07:55:06;;;;;;;;;;;;;;;;;;5009870;28;1666;-75
2022/09/04 07:57:49;;;;;;;;;;;;;;;;;;5012710;28;1521;-78
2022/09/04 08:00:17;;;;;;;;;;;;;;;;;;5013087;28;1413;-76
2022/09/04 08:02:48;;;;;;;;;;;;;;;;;;5015291;28;1227;-76
2022/09/04 08:05:31;;;;;;;;;;;;;;;;;;5010870;28;1981;-76
2022/09/04 08:08:10;;;;;;;;;;;;;;;;;;5015812;28;1350;-75
2022/09/04 08:10:44;;;;;;;;;;;;;;;;;;5012128;28;1367;-77
2022/09/04 08:13:12;;;;;;;;;;;;;;;;;;5011284;28;1449;-76
2022/09/04 08:15:51;;;;;;;;;;;;;;;;;;5011741;28;1590;-77
2022/09/04 08:18:35;;;;;;;;;;;;;;;;;;5011718;28;1422;-75
2022/09/04 08:21:20;;;;;;;;;;;;;;;;;;5012150;28;1464;-75
2022/09/04 08:23:48;;;;;;;;;;;;;;;;;;5009126;28;2216;-75
2022/09/04 08:26:14;;;;;;;;;;;;;;;;;;5013311;28;1914;-75
2022/09/04 08:28:58;;;;;;;;;;;;;;;;;;5010649;28;1423;-75
2022/09/04 08:31:29;;;;;;;;;;;;;;;;;;5009812;28;1240;-75
2022/09/04 08:34:04;;;;;;;;;;;;;;;;;;5014687;28;1322;-76
2022/09/04 08:36:32;;;;;;;;;;;;;;;;;;5014458;28;1358;-76
2022/09/04 08:39:06;;;;;;;;;;;;;;;;;;5008585;28;1263;-75
2022/09/04 08:41:34;;;;;;;;;;;;;;;;;;5008706;28;1211;-75
2022/09/04 08:44:18;;;;;;;;;;;;;;;;;;5010592;28;1366;-76
2022/09/04 08:46:47;;;;;;;;;;;;;;;;;;5012005;28;1972;-75
2022/09/04 08:49:32;;;;;;;;;;;;;;;;;;5016052;28;1188;-76
2022/09/04 08:52:23;;;;;;;;;;;;;;;;;;5015309;28;1384;-76
2022/09/04 08:55:04;;;;;;;;;;;;;;;;;;5008915;28;1283;-76
2022/09/04 08:57:48;;;;;;;;;;;;;;;;;;5012397;28;1366;-77
2022/09/04 09:00:20;;;;;;;;;;;;;;;;;;5012756;28;1239;-76
2022/09/04 09:02:57;;;;;;;;;;;;;;;;;;5015990;28;1226;-76
2022/09/04 09:05:24;;;;;;;;;;;;;;;;;;5007546;28;1897;-76
2022/09/04 09:07:57;;;;;;;;;;;;;;;;;;5009204;28;1445;-74
2022/09/04 09:10:48;;;;;;;;;;;;;;;;;;5009679;28;1259;-74
2022/09/04 09:13:16;;;;;;;;;;;;;;;;;;4998974;28;1301;-74
2022/09/04 09:16:01;;;;;;;;;;;;;;;;;;5013048;28;1290;-74
2022/09/04 09:18:47;;;;;;;;;;;;;;;;;;5011362;28;1589;-74
2022/09/04 09:21:30;;;;;;;;;;;;;;;;;;5012272;28;1436;-74
2022/09/04 09:24:21;;;;;;;;;;;;;;;;;;5013763;28;1220;-74
2022/09/04 09:27:01;;;;;;;;;;;;;;;;;;5006653;28;1970;-73
2022/09/04 09:29:45;;;;;;;;;;;;;;;;;;5012591;28;1748;-73
2022/09/04 09:32:27;;;;;;;;;;;;;;;;;;5010313;28;1813;-75
2022/09/04 09:35:07;;;;;;;;;;;;;;;;;;5008359;28;1256;-75
2022/09/04 09:37:41;;;;;;;;;;;;;;;;;;5012909;28;1271;-75
2022/09/04 09:40:12;;;;;;;;;;;;;;;;;;5017054;28;1322;-74
2022/09/04 09:43:04;;;;;;;;;;;;;;;;;;5013872;28;1309;-75
2022/09/04 09:45:48;;;;;;;;;;;;;;;;;;4996393;28;1902;-75
2022/09/04 09:48:31;;;;;;;;;;;;;;;;;;5010999;28;1303;-74
2022/09/04 09:51:23;;;;;;;;;;;;;;;;;;5014207;28;1825;-74
2022/09/04 09:54:07;;;;;;;;;;;;;;;;;;4996242;28;1310;-76
2022/09/04 09:56:44;;;;;;;;;;;;;;;;;;5012215;28;1270;-75
2022/09/04 09:59:29;;;;;;;;;;;;;;;;;;5009047;28;1604;-75
2022/09/04 10:02:09;;;;;;;;;;;;;;;;;;5013140;28;1460;-76
2022/09/04 10:04:44;;;;;;;;;;;;;;;;;;5007124;28;1311;-75
2022/09/04 10:07:25;;;;;;;;;;;;;;;;;;5039707;22;3535;-69
2022/09/04 10:10:07;;;;;;;;;;;;;;;;;;5027550;28;1351;-71
2022/09/04 10:12:32;;;;;;;;;;;;;;;;;;5031570;28;1168;-71
2022/09/04 10:15:03;;;;;;;;;;;;;;;;;;5028619;28;1251;-70
2022/09/04 10:17:45;;;;;;;;;;;;;;;;;;5011508;28;1307;-71
2022/09/04 10:20:29;;;;;;;;;;;;;;;;;;5008777;28;1289;-71
2022/09/04 10:22:54;;;;;;;;;;;;;;;;;;5010714;28;1287;-70
2022/09/04 10:25:22;;;;;;;;;;;;;;;;;;5011244;28;1907;-70
2022/09/04 10:28:00;;;;;;;;;;;;;;;;;;5010041;28;1246;-70
2022/09/04 10:30:29;;;;;;;;;;;;;;;;;;5010001;28;1401;-70
2022/09/04 10:32:57;;;;;;;;;;;;;;;;;;5012397;28;1326;-70
2022/09/04 10:35:24;;;;;;;;;;;;;;;;;;5008987;28;1486;-71
2022/09/04 10:37:55;;;;;;;;;;;;;;;;;;5010980;28;1220;-70
2022/09/04 10:40:43;;;;;;;;;;;;;;;;;;5010921;28;1302;-73
2022/09/04 10:43:21;;;;;;;;;;;;;;;;;;5013492;28;2125;-73
2022/09/04 10:45:53;;;;;;;;;;;;;;;;;;5010278;28;1882;-73
2022/09/04 10:48:31;;;;;;;;;;;;;;;;;;5009062;28;1256;-73
2022/09/04 10:51:15;;;;;;;;;;;;;;;;;;5033725;28;1362;-72
2022/09/04 10:54:04;;;;;;;;;;;;;;;;;;5012070;28;1322;-73
2022/09/04 10:56:50;;;;;;;;;;;;;;;;;;5009166;28;1479;-72
2022/09/04 10:59:25;;;;;;;;;;;;;;;;;;4991323;28;1765;-73
2022/09/04 11:01:54;;;;;;;;;;;;;;;;;;5014080;28;1180;-73
2022/09/04 11:04:19;;;;;;;;;;;;;;;;;;5011439;28;1771;-73
2022/09/04 11:06:48;;;;;;;;;;;;;;;;;;5003894;28;1898;-73
2022/09/04 11:09:13;;;;;;;;;;;;;;;;;;5007346;28;1695;-73
2022/09/04 11:11:57;;;;;;;;;;;;;;;;;;5009935;28;1365;-73
2022/09/04 11:14:29;;;;;;;;;;;;;;;;;;5011279;28;1144;-73
2022/09/04 11:16:57;;;;;;;;;;;;;;;;;;5014171;28;1791;-72
2022/09/04 11:19:22;;;;;;;;;;;;;;;;;;5010484;28;1420;-73
2022/09/04 11:22:18;;;;;;;;;;;;;;;;;;5014018;28;1353;-73
2022/09/04 11:24:59;;;;;;;;;;;;;;;;;;5006296;28;1378;-72
2022/09/04 11:27:26;;;;;;;;;;;;;;;;;;5007898;28;1961;-72
2022/09/04 11:29:58;;;;;;;;;;;;;;;;;;5008758;28;1283;-72
2022/09/04 11:32:26;;;;;;;;;;;;;;;;;;5010922;28;1199;-73
2022/09/04 11:35:12;;;;;;;;;;;;;;;;;;5014881;28;1188;-74
2022/09/04 11:37:41;;;;;;;;;;;;;;;;;;5013326;28;1409;-71
2022/09/04 11:40:25;;;;;;;;;;;;;;;;;;5010061;28;1271;-72
2022/09/04 11:43:00;;;;;;;;;;;;;;;;;;5012373;28;1240;-71
2022/09/04 11:45:29;;;;;;;;;;;;;;;;;;5011643;28;1898;-70
2022/09/04 11:48:10;;;;;;;;;;;;;;;;;;5009555;28;1243;-72
2022/09/04 11:50:45;;;;;;;;;;;;;;;;;;5015528;28;1392;-72
2022/09/04 11:53:12;;;;;;;;;;;;;;;;;;5014623;28;1100;-72
2022/09/04 11:55:58;;;;;;;;;;;;;;;;;;5012133;28;1279;-71
2022/09/04 11:58:35;;;;;;;;;;;;;;;;;;5010545;28;1313;-72
2022/09/04 12:01:15;;;;;;;;;;;;;;;;;;5011730;28;1216;-71
2022/09/04 12:03:59;;;;;;;;;;;;;;;;;;5010724;28;1187;-71
2022/09/04 12:06:28;;;;;;;;;;;;;;;;;;5014105;28;1874;-71
2022/09/04 12:09:32;;;;;;;;;;;;;;;;;;5015597;28;1101;-71
2022/09/04 12:12:07;;;;;;;;;;;;;;;;;;4969036;28;1373;-72
2022/09/04 12:14:39;;;;;;;;;;;;;;;;;;4971650;28;1244;-71
2022/09/04 12:17:09;;;;;;;;;;;;;;;;;;4993138;28;1281;-72
2022/09/04 12:19:49;;;;;;;;;;;;;;;;;;5013247;28;1290;-72
2022/09/04 12:22:49;;;;;;;;;;;;;;;;;;5013243;28;1405;-72
2022/09/04 12:25:17;;;;;;;;;;;;;;;;;;4980912;28;1894;-71
2022/09/04 12:28:00;;;;;;;;;;;;;;;;;;5011990;28;1469;-71
2022/09/04 12:30:36;;;;;;;;;;;;;;;;;;5012500;28;1365;-71
2022/09/04 12:33:01;;;;;;;;;;;;;;;;;;5011436;28;1220;-70
2022/09/04 12:35:33;;;;;;;;;;;;;;;;;;5011017;28;1354;-71
2022/09/04 12:38:12;;;;;;;;;;;;;;;;;;5007564;28;1397;-71
2022/09/04 12:40:44;;;;;;;;;;;;;;;;;;5012439;28;1458;-71
2022/09/04 12:43:15;;;;;;;;;;;;;;;;;;5010642;28;1231;-71
2022/09/04 12:45:40;;;;;;;;;;;;;;;;;;5006987;28;2003;-71
2022/09/04 12:48:23;;;;;;;;;;;;;;;;;;5010626;28;1278;-71
2022/09/04 12:50:48;;;;;;;;;;;;;;;;;;5010656;28;1253;-72
2022/09/04 12:53:24;;;;;;;;;;;;;;;;;;5011313;28;1288;-71
2022/09/04 12:56:09;;;;;;;;;;;;;;;;;;5011552;28;1406;-71
2022/09/04 12:59:00;;;;;;;;;;;;;;;;;;5011038;28;1227;-71
2022/09/04 13:02:01;;;;;;;;;;;;;;;;;;5011800;28;1176;-71
2022/09/04 13:04:26;;;;;;;;;;;;;;;;;;4972410;28;1592;-71
2022/09/04 13:07:13;;;;;;;;;;;;;;;;;;5000068;28;1894;-71
2022/09/04 13:09:58;;;;;;;;;;;;;;;;;;5008964;28;1204;-71
2022/09/04 13:12:41;;;;;;;;;;;;;;;;;;5011793;28;1235;-71
2022/09/04 13:15:07;;;;;;;;;;;;;;;;;;5011719;28;1184;-71
2022/09/04 13:17:43;;;;;;;;;;;;;;;;;;5010911;28;1224;-71
2022/09/04 13:20:23;;;;;;;;;;;;;;;;;;5009408;28;1401;-71
2022/09/04 13:23:06;;;;;;;;;;;;;;;;;;5014109;28;1779;-71
2022/09/04 13:25:34;;;;;;;;;;;;;;;;;;5006109;28;1898;-71
2022/09/04 13:28:22;;;;;;;;;;;;;;;;;;5012047;28;1261;-70
2022/09/04 13:30:58;;;;;;;;;;;;;;;;;;5012934;28;1212;-71
2022/09/04 13:33:38;;;;;;;;;;;;;;;;;;5011284;28;1337;-70
2022/09/04 13:36:22;;;;;;;;;;;;;;;;;;5009899;28;1420;-70
2022/09/04 13:38:47;;;;;;;;;;;;;;;;;;5008606;28;1215;-71
2022/09/04 13:41:22;;;;;;;;;;;;;;;;;;5013838;28;1219;-70
2022/09/04 13:43:53;;;;;;;;;;;;;;;;;;5011467;28;1322;-69
2022/09/04 13:46:48;;;;;;;;;;;;;;;;;;5008882;28;1898;-70
2022/09/04 13:49:20;;;;;;;;;;;;;;;;;;5009417;28;1444;-71
2022/09/04 13:51:50;;;;;;;;;;;;;;;;;;5013317;28;1244;-70
2022/09/04 13:54:30;;;;;;;;;;;;;;;;;;5011271;28;1393;-71
2022/09/04 13:57:19;;;;;;;;;;;;;;;;;;5008036;28;1482;-72
2022/09/04 13:59:48;;;;;;;;;;;;;;;;;;5012622;28;1431;-72
2022/09/04 14:02:13;;;;;;;;;;;;;;;;;;5011069;28;1482;-71
2022/09/04 14:04:49;;;;;;;;;;;;;;;;;;5008835;28;1371;-71
2022/09/04 14:07:23;;;;;;;;;;;;;;;;;;5006984;28;1871;-71
2022/09/04 14:09:49;;;;;;;;;;;;;;;;;;5006947;28;1318;-71
2022/09/04 14:12:32;;;;;;;;;;;;;;;;;;5010701;28;1315;-70
2022/09/04 14:15:10;;;;;;;;;;;;;;;;;;5008371;28;1446;-70
2022/09/04 14:17:56;;;;;;;;;;;;;;;;;;5009780;28;1382;-68
2022/09/04 14:20:44;;;;;;;;;;;;;;;;;;5012880;28;2377;-69
2022/09/04 14:23:09;;;;;;;;;;;;;;;;;;5004553;28;1165;-69
2022/09/04 14:25:37;;;;;;;;;;;;;;;;;;5009052;28;1962;-69
2022/09/04 14:28:28;;;;;;;;;;;;;;;;;;5012691;28;1036;-70
2022/09/04 14:31:05;;;;;;;;;;;;;;;;;;5012007;28;1418;-69
2022/09/04 14:33:52;;;;;;;;;;;;;;;;;;5009532;28;1238;-70
2022/09/04 14:36:26;;;;;;;;;;;;;;;;;;5012975;28;1364;-69
2022/09/04 14:39:04;;;;;;;;;;;;;;;;;;5011061;28;1191;-71
2022/09/04 14:41:41;;;;;;;;;;;;;;;;;;5008655;28;1392;-71
2022/09/04 14:44:28;;;;;;;;;;;;;;;;;;5009617;28;1230;-69
2022/09/04 14:46:58;;;;;;;;;;;;;;;;;;5006785;28;1963;-69
2022/09/04 14:49:26;;;;;;;;;;;;;;;;;;5009184;28;1266;-72
2022/09/04 14:51:55;;;;;;;;;;;;;;;;;;5016961;28;1252;-71
2022/09/04 14:54:35;;;;;;;;;;;;;;;;;;5012808;28;1247;-72
2022/09/04 14:57:19;;;;;;;;;;;;;;;;;;5009271;28;1264;-71
2022/09/04 14:59:50;;;;;;;;;;;;;;;;;;5009726;28;1770;-71
2022/09/04 15:02:21;;;;;;;;;;;;;;;;;;5010953;28;1465;-70
2022/09/04 15:05:06;;;;;;;;;;;;;;;;;;5007033;28;993;-71
2022/09/04 15:07:40;;;;;;;;;;;;;;;;;;5013450;28;1959;-71
2022/09/04 15:10:10;;;;;;;;;;;;;;;;;;5014351;28;1325;-70
2022/09/04 15:12:37;;;;;;;;;;;;;;;;;;5014969;28;1337;-71
2022/09/04 15:15:14;;;;;;;;;;;;;;;;;;5012711;28;1527;-67
2022/09/04 15:17:44;;;;;;;;;;;;;;;;;;5015356;28;1676;-69
2022/09/04 15:20:19;;;;;;;;;;;;;;;;;;5037940;28;1247;-68
2022/09/04 15:22:47;;;;;;;;;;;;;;;;;;5012717;28;1661;-67
2022/09/04 15:25:18;;;;;;;;;;;;;;;;;;5016652;28;1307;-66
2022/09/04 15:27:51;;;;;;;;;;;;;;;;;;5014966;28;1894;-67
2022/09/04 15:30:19;;;;;;;;;;;;;;;;;;5014985;28;1540;-67
2022/09/04 15:32:45;;;;;;;;;;;;;;;;;;5014710;28;1366;-68
2022/09/04 15:35:25;;;;;;;;;;;;;;;;;;5016246;28;1195;-67
2022/09/04 15:38:10;;;;;;;;;;;;;;;;;;5010520;28;1157;-68
2022/09/04 15:40:43;;;;;;;;;;;;;;;;;;5013157;28;1314;-67
2022/09/04 15:43:14;;;;;;;;;;;;;;;;;;5010439;28;1499;-67
2022/09/04 15:45:42;;;;;;;;;;;;;;;;;;5013034;28;1967;-68
2022/09/04 15:48:26;;;;;;;;;;;;;;;;;;5010385;28;1225;-69
2022/09/04 15:50:58;;;;;;;;;;;;;;;;;;5011003;28;1312;-69
2022/09/04 15:53:33;;;;;;;;;;;;;;;;;;5010467;28;1513;-67
2022/09/04 15:56:08;;;;;;;;;;;;;;;;;;5010981;28;1263;-67
2022/09/04 15:58:45;;;;;;;;;;;;;;;;;;5013612;28;1412;-67
2022/09/04 16:01:12;;;;;;;;;;;;;;;;;;5012704;28;1303;-67
2022/09/04 16:03:40;;;;;;;;;;;;;;;;;;5011018;28;1200;-67
2022/09/04 16:06:14;;;;;;;;;;;;;;;;;;5012222;28;1901;-67
2022/09/04 16:08:44;;;;;;;;;;;;;;;;;;5015040;28;1275;-67
2022/09/04 16:11:22;;;;;;;;;;;;;;;;;;5014254;28;1164;-68
2022/09/04 16:13:53;;;;;;;;;;;;;;;;;;5014731;28;1306;-66
2022/09/04 16:16:22;;;;;;;;;;;;;;;;;;5010700;28;1370;-66
2022/09/04 16:18:59;;;;;;;;;;;;;;;;;;5010755;28;1673;-66
2022/09/04 16:21:47;;;;;;;;;;;;;;;;;;5016796;28;1983;-66
2022/09/04 16:24:17;;;;;;;;;;;;;;;;;;5013714;28;1125;-67
2022/09/04 16:26:49;;;;;;;;;;;;;;;;;;5012981;28;1898;-66
2022/09/04 16:29:35;;;;;;;;;;;;;;;;;;5013244;28;1147;-66
2022/09/04 16:32:01;;;;;;;;;;;;;;;;;;5012847;28;1497;-66
2022/09/04 16:34:30;;;;;;;;;;;;;;;;;;5012447;28;1259;-66
2022/09/04 16:37:19;;;;;;;;;;;;;;;;;;5014433;28;1541;-67
2022/09/04 16:40:11;;;;;;;;;;;;;;;;;;5004256;28;1185;-67
2022/09/04 16:42:48;;;;;;;;;;;;;;;;;;5011369;28;1140;-67
2022/09/04 16:45:16;;;;;;;;;;;;;;;;;;5010400;28;1801;-66
2022/09/04 16:47:48;;;;;;;;;;;;;;;;;;5027491;23;3547;-70
2022/09/04 16:50:23;;;;;;;;;;;;;;;;;;5037572;28;1359;-70
2022/09/04 16:52:51;;;;;;;;;;;;;;;;;;5030991;28;1112;-70
2022/09/04 16:55:20;;;;;;;;;;;;;;;;;;5034658;28;1315;-69
2022/09/04 16:57:45;;;;;;;;;;;;;;;;;;5032404;28;1286;-69
2022/09/04 17:00:13;;;;;;;;;;;;;;;;;;5042057;28;1216;-69
2022/09/04 17:02:49;;;;;;;;;;;;;;;;;;5040076;28;1271;-70
2022/09/04 17:05:16;;;;;;;;;;;;;;;;;;5039651;28;1514;-70
2022/09/04 17:07:45;;;;;;;;;;;;;;;;;;5041465;28;1961;-69
2022/09/04 17:10:25;;;;;;;;;;;;;;;;;;5039800;28;1627;-70
2022/09/04 17:13:18;;;;;;;;;;;;;;;;;;5040255;28;1193;-69
2022/09/04 17:16:06;;;;;;;;;;;;;;;;;;5037422;28;1327;-70
2022/09/04 17:18:32;;;;;;;;;;;;;;;;;;5040950;28;1449;-71
2022/09/04 17:21:03;;;;;;;;;;;;;;;;;;5042113;28;1402;-69
2022/09/04 17:23:40;;;;;;;;;;;;;;;;;;5040642;28;1232;-69
2022/09/04 17:26:10;;;;;;;;;;;;;;;;;;5041284;28;1967;-70
2022/09/04 17:28:43;;;;;;;;;;;;;;;;;;5041834;28;1303;-70
2022/09/04 17:31:22;;;;;;;;;;;;;;;;;;5041112;28;1084;-70
2022/09/04 17:33:55;;;;;;;;;;;;;;;;;;5035318;28;1259;-70
2022/09/04 17:36:25;;;;;;;;;;;;;;;;;;5039601;28;1409;-69
2022/09/04 17:39:13;;;;;;;;;;;;;;;;;;5040917;28;1236;-70
2022/09/04 17:41:43;;;;;;;;;;;;;;;;;;5047999;28;1251;-70
2022/09/04 17:44:12;;;;;;;;;;;;;;;;;;5046323;28;1471;-68
2022/09/04 17:46:42;;;;;;;;;;;;;;;;;;5046197;28;1910;-68
2022/09/04 17:49:10;;;;;;;;;;;;;;;;;;5042500;28;1457;-68
2022/09/04 17:51:35;;;;;;;;;;;;;;;;;;5043678;28;1295;-67
2022/09/04 17:54:03;;;;;;;;;;;;;;;;;;5028066;28;1216;-69
2022/09/04 17:56:39;;;;;;;;;;;;;;;;;;5047914;28;1317;-70
2022/09/04 17:59:10;;;;;;;;;;;;;;;;;;5023002;28;1388;-70
2022/09/04 18:01:40;;;;;;;;;;;;;;;;;;5046863;28;1200;-70
2022/09/04 18:04:23;;;;;;;;;;;;;;;;;;5029451;28;1345;-72
2022/09/04 18:06:56;;;;;;;;;;;;;;;;;;5043656;28;1906;-70